Аэропорт: Иркутск. Иркутск

ICAO: UIII

METAR:
2020-10-23 11:00:00
UIII 231100Z 16006MPS CAVOK 06/01 Q1014 R12/CLRD60 NOSIG RMK QFE718/0958
METAR:
2020-10-23 10:30:00
TAF AMD UIII 231030Z 2310/2409 16003MPS CAVOK